sensor_id;sensor_type;location;lat;lon;timestamp;P1;durP1;ratioP1;P2;durP2;ratioP2
59306;SDS011;47983;53.016;-2.260;2023-05-15T00:01:23;8.88;;;1.45;;
59306;SDS011;47983;53.016;-2.260;2023-05-15T00:03:52;6.27;;;1.60;;
59306;SDS011;47983;53.016;-2.260;2023-05-15T00:06:21;6.75;;;1.75;;
59306;SDS011;47983;53.016;-2.260;2023-05-15T00:08:49;7.50;;;1.65;;
59306;SDS011;47983;53.016;-2.260;2023-05-15T00:11:17;14.68;;;3.45;;
59306;SDS011;47983;53.016;-2.260;2023-05-15T00:13:45;9.70;;;1.98;;
59306;SDS011;47983;53.016;-2.260;2023-05-15T00:16:15;10.52;;;1.75;;
59306;SDS011;47983;53.016;-2.260;2023-05-15T00:18:47;15.98;;;2.67;;
59306;SDS011;47983;53.016;-2.260;2023-05-15T00:21:15;10.23;;;1.40;;
59306;SDS011;47983;53.016;-2.260;2023-05-15T00:23:43;5.85;;;1.10;;
59306;SDS011;47983;53.016;-2.260;2023-05-15T00:26:11;9.65;;;1.65;;
59306;SDS011;47983;53.016;-2.260;2023-05-15T00:28:42;9.52;;;1.52;;
59306;SDS011;47983;53.016;-2.260;2023-05-15T00:31:10;16.95;;;1.75;;
59306;SDS011;47983;53.016;-2.260;2023-05-15T00:33:39;6.15;;;1.42;;
59306;SDS011;47983;53.016;-2.260;2023-05-15T00:36:09;14.27;;;2.03;;
59306;SDS011;47983;53.016;-2.260;2023-05-15T00:38:36;12.18;;;2.67;;
59306;SDS011;47983;53.016;-2.260;2023-05-15T00:41:05;12.02;;;1.60;;
59306;SDS011;47983;53.016;-2.260;2023-05-15T00:43:35;8.27;;;1.55;;
59306;SDS011;47983;53.016;-2.260;2023-05-15T00:46:06;11.70;;;2.20;;
59306;SDS011;47983;53.016;-2.260;2023-05-15T00:48:36;8.13;;;1.70;;
59306;SDS011;47983;53.016;-2.260;2023-05-15T00:51:05;7.03;;;1.52;;
59306;SDS011;47983;53.016;-2.260;2023-05-15T00:53:33;10.05;;;1.23;;
59306;SDS011;47983;53.016;-2.260;2023-05-15T00:56:01;13.30;;;1.80;;
59306;SDS011;47983;53.016;-2.260;2023-05-15T00:58:31;17.95;;;2.47;;
59306;SDS011;47983;53.016;-2.260;2023-05-15T01:01:01;7.85;;;1.33;;
59306;SDS011;47983;53.016;-2.260;2023-05-15T01:03:29;14.95;;;2.50;;
59306;SDS011;47983;53.016;-2.260;2023-05-15T01:05:59;12.77;;;1.60;;
59306;SDS011;47983;53.016;-2.260;2023-05-15T01:11:01;15.10;;;2.42;;
59306;SDS011;47983;53.016;-2.260;2023-05-15T01:13:31;6.65;;;1.25;;
59306;SDS011;47983;53.016;-2.260;2023-05-15T01:15:59;11.90;;;1.50;;
59306;SDS011;47983;53.016;-2.260;2023-05-15T01:18:28;9.13;;;1.70;;
59306;SDS011;47983;53.016;-2.260;2023-05-15T01:24:00;14.05;;;2.85;;
59306;SDS011;47983;53.016;-2.260;2023-05-15T01:35:09;11.18;;;1.80;;
59306;SDS011;47983;53.016;-2.260;2023-05-15T01:40:36;9.05;;;1.70;;
59306;SDS011;47983;53.016;-2.260;2023-05-15T01:43:08;7.35;;;1.40;;
59306;SDS011;47983;53.016;-2.260;2023-05-15T01:45:41;11.07;;;1.77;;
59306;SDS011;47983;53.016;-2.260;2023-05-15T01:48:09;8.52;;;1.35;;
59306;SDS011;47983;53.016;-2.260;2023-05-15T01:50:40;14.60;;;1.40;;
59306;SDS011;47983;53.016;-2.260;2023-05-15T01:53:13;6.78;;;1.48;;
59306;SDS011;47983;53.016;-2.260;2023-05-15T01:55:42;19.70;;;1.27;;
59306;SDS011;47983;53.016;-2.260;2023-05-15T01:58:11;9.65;;;1.90;;
59306;SDS011;47983;53.016;-2.260;2023-05-15T02:00:40;9.68;;;1.30;;
59306;SDS011;47983;53.016;-2.260;2023-05-15T02:03:09;14.07;;;2.05;;
59306;SDS011;47983;53.016;-2.260;2023-05-15T02:05:40;15.05;;;1.38;;
59306;SDS011;47983;53.016;-2.260;2023-05-15T02:08:09;10.68;;;1.40;;
59306;SDS011;47983;53.016;-2.260;2023-05-15T02:10:38;12.80;;;2.20;;
59306;SDS011;47983;53.016;-2.260;2023-05-15T02:13:07;10.93;;;2.43;;
59306;SDS011;47983;53.016;-2.260;2023-05-15T02:15:36;8.48;;;1.98;;
59306;SDS011;47983;53.016;-2.260;2023-05-15T02:18:04;7.95;;;1.60;;
59306;SDS011;47983;53.016;-2.260;2023-05-15T02:20:32;8.43;;;1.30;;
59306;SDS011;47983;53.016;-2.260;2023-05-15T02:23:00;11.25;;;1.70;;
59306;SDS011;47983;53.016;-2.260;2023-05-15T02:25:32;7.32;;;1.70;;
59306;SDS011;47983;53.016;-2.260;2023-05-15T02:28:08;6.63;;;1.15;;
59306;SDS011;47983;53.016;-2.260;2023-05-15T02:31:00;6.22;;;1.33;;
59306;SDS011;47983;53.016;-2.260;2023-05-15T02:33:36;11.30;;;2.13;;
59306;SDS011;47983;53.016;-2.260;2023-05-15T02:36:46;15.07;;;1.77;;
59306;SDS011;47983;53.016;-2.260;2023-05-15T02:39:17;12.30;;;1.92;;
59306;SDS011;47983;53.016;-2.260;2023-05-15T02:41:49;3.92;;;0.90;;
59306;SDS011;47983;53.016;-2.260;2023-05-15T02:44:19;8.55;;;1.27;;
59306;SDS011;47983;53.016;-2.260;2023-05-15T02:46:48;8.43;;;1.58;;
59306;SDS011;47983;53.016;-2.260;2023-05-15T02:49:20;7.85;;;1.30;;
59306;SDS011;47983;53.016;-2.260;2023-05-15T02:51:49;6.50;;;1.13;;
59306;SDS011;47983;53.016;-2.260;2023-05-15T02:54:17;11.48;;;1.35;;
59306;SDS011;47983;53.016;-2.260;2023-05-15T02:56:48;7.38;;;1.45;;
59306;SDS011;47983;53.016;-2.260;2023-05-15T02:59:16;8.15;;;1.70;;
59306;SDS011;47983;53.016;-2.260;2023-05-15T03:04:16;5.60;;;1.42;;
59306;SDS011;47983;53.016;-2.260;2023-05-15T03:06:44;13.20;;;1.80;;
59306;SDS011;47983;53.016;-2.260;2023-05-15T03:09:12;14.60;;;2.78;;
59306;SDS011;47983;53.016;-2.260;2023-05-15T03:11:40;8.98;;;1.10;;
59306;SDS011;47983;53.016;-2.260;2023-05-15T03:14:08;9.65;;;1.52;;
59306;SDS011;47983;53.016;-2.260;2023-05-15T03:16:36;5.47;;;1.20;;
59306;SDS011;47983;53.016;-2.260;2023-05-15T03:19:05;8.73;;;2.05;;
59306;SDS011;47983;53.016;-2.260;2023-05-15T03:21:33;10.43;;;1.17;;
59306;SDS011;47983;53.016;-2.260;2023-05-15T03:24:03;9.25;;;1.30;;
59306;SDS011;47983;53.016;-2.260;2023-05-15T03:26:32;11.63;;;2.80;;
59306;SDS011;47983;53.016;-2.260;2023-05-15T03:28:59;11.95;;;2.22;;
59306;SDS011;47983;53.016;-2.260;2023-05-15T03:31:28;9.27;;;1.00;;
59306;SDS011;47983;53.016;-2.260;2023-05-15T03:33:56;12.02;;;1.63;;
59306;SDS011;47983;53.016;-2.260;2023-05-15T03:36:24;12.30;;;3.28;;
59306;SDS011;47983;53.016;-2.260;2023-05-15T03:38:51;6.03;;;1.60;;
59306;SDS011;47983;53.016;-2.260;2023-05-15T03:41:19;8.65;;;2.30;;
59306;SDS011;47983;53.016;-2.260;2023-05-15T03:43:48;10.90;;;1.35;;
59306;SDS011;47983;53.016;-2.260;2023-05-15T03:46:17;11.07;;;1.67;;
59306;SDS011;47983;53.016;-2.260;2023-05-15T03:48:46;10.95;;;1.52;;
59306;SDS011;47983;53.016;-2.260;2023-05-15T03:51:17;7.00;;;1.10;;
59306;SDS011;47983;53.016;-2.260;2023-05-15T03:53:45;11.45;;;1.45;;
59306;SDS011;47983;53.016;-2.260;2023-05-15T03:56:13;12.90;;;1.40;;
59306;SDS011;47983;53.016;-2.260;2023-05-15T03:58:41;12.48;;;1.40;;
59306;SDS011;47983;53.016;-2.260;2023-05-15T04:01:09;8.05;;;1.63;;
59306;SDS011;47983;53.016;-2.260;2023-05-15T04:03:36;10.35;;;1.67;;
59306;SDS011;47983;53.016;-2.260;2023-05-15T04:06:04;6.72;;;1.77;;
59306;SDS011;47983;53.016;-2.260;2023-05-15T04:08:32;9.27;;;1.35;;
59306;SDS011;47983;53.016;-2.260;2023-05-15T04:11:00;8.10;;;1.23;;
59306;SDS011;47983;53.016;-2.260;2023-05-15T04:13:28;13.50;;;2.40;;
59306;SDS011;47983;53.016;-2.260;2023-05-15T04:15:56;5.35;;;1.30;;
59306;SDS011;47983;53.016;-2.260;2023-05-15T04:18:24;12.00;;;1.63;;
59306;SDS011;47983;53.016;-2.260;2023-05-15T04:20:52;12.23;;;2.03;;
59306;SDS011;47983;53.016;-2.260;2023-05-15T04:23:20;7.60;;;1.20;;
59306;SDS011;47983;53.016;-2.260;2023-05-15T04:25:48;12.73;;;1.55;;
59306;SDS011;47983;53.016;-2.260;2023-05-15T04:28:16;5.20;;;0.93;;
59306;SDS011;47983;53.016;-2.260;2023-05-15T04:30:46;7.25;;;2.35;;
59306;SDS011;47983;53.016;-2.260;2023-05-15T04:33:13;6.43;;;1.55;;
59306;SDS011;47983;53.016;-2.260;2023-05-15T04:35:41;11.18;;;1.73;;
59306;SDS011;47983;53.016;-2.260;2023-05-15T04:38:09;9.30;;;2.03;;
59306;SDS011;47983;53.016;-2.260;2023-05-15T04:40:37;11.77;;;1.83;;
59306;SDS011;47983;53.016;-2.260;2023-05-15T04:43:05;15.13;;;1.75;;
59306;SDS011;47983;53.016;-2.260;2023-05-15T04:45:32;13.40;;;2.88;;
59306;SDS011;47983;53.016;-2.260;2023-05-15T04:48:01;13.35;;;1.38;;
59306;SDS011;47983;53.016;-2.260;2023-05-15T04:50:29;14.98;;;2.20;;
59306;SDS011;47983;53.016;-2.260;2023-05-15T04:52:56;8.98;;;1.60;;
59306;SDS011;47983;53.016;-2.260;2023-05-15T04:55:27;15.23;;;3.10;;
59306;SDS011;47983;53.016;-2.260;2023-05-15T04:57:57;14.50;;;1.58;;
59306;SDS011;47983;53.016;-2.260;2023-05-15T05:00:24;10.50;;;1.85;;
59306;SDS011;47983;53.016;-2.260;2023-05-15T05:02:53;12.88;;;2.25;;
59306;SDS011;47983;53.016;-2.260;2023-05-15T05:05:20;13.40;;;1.70;;
59306;SDS011;47983;53.016;-2.260;2023-05-15T05:07:48;10.35;;;1.30;;
59306;SDS011;47983;53.016;-2.260;2023-05-15T05:10:19;11.60;;;1.83;;
59306;SDS011;47983;53.016;-2.260;2023-05-15T05:12:51;9.68;;;1.48;;
59306;SDS011;47983;53.016;-2.260;2023-05-15T05:15:19;12.23;;;1.50;;
59306;SDS011;47983;53.016;-2.260;2023-05-15T05:17:47;11.63;;;1.58;;
59306;SDS011;47983;53.016;-2.260;2023-05-15T05:20:15;11.30;;;1.80;;
59306;SDS011;47983;53.016;-2.260;2023-05-15T05:22:43;10.57;;;1.88;;
59306;SDS011;47983;53.016;-2.260;2023-05-15T05:25:11;12.02;;;2.33;;
59306;SDS011;47983;53.016;-2.260;2023-05-15T05:27:39;13.15;;;1.88;;
59306;SDS011;47983;53.016;-2.260;2023-05-15T05:30:07;13.65;;;2.85;;
59306;SDS011;47983;53.016;-2.260;2023-05-15T05:32:35;11.52;;;1.60;;
59306;SDS011;47983;53.016;-2.260;2023-05-15T05:35:03;10.57;;;1.70;;
59306;SDS011;47983;53.016;-2.260;2023-05-15T05:37:32;9.25;;;1.55;;
59306;SDS011;47983;53.016;-2.260;2023-05-15T05:40:01;9.50;;;1.60;;
59306;SDS011;47983;53.016;-2.260;2023-05-15T05:42:29;10.77;;;1.90;;
59306;SDS011;47983;53.016;-2.260;2023-05-15T05:44:57;10.30;;;1.60;;
59306;SDS011;47983;53.016;-2.260;2023-05-15T05:47:25;9.88;;;1.80;;
59306;SDS011;47983;53.016;-2.260;2023-05-15T05:49:53;15.45;;;2.33;;
59306;SDS011;47983;53.016;-2.260;2023-05-15T05:52:21;7.05;;;1.20;;
59306;SDS011;47983;53.016;-2.260;2023-05-15T05:54:49;8.55;;;1.45;;
59306;SDS011;47983;53.016;-2.260;2023-05-15T05:57:21;9.70;;;2.78;;
59306;SDS011;47983;53.016;-2.260;2023-05-15T05:59:49;6.53;;;1.85;;
59306;SDS011;47983;53.016;-2.260;2023-05-15T06:02:19;14.32;;;2.17;;
59306;SDS011;47983;53.016;-2.260;2023-05-15T06:04:48;12.85;;;2.38;;
59306;SDS011;47983;53.016;-2.260;2023-05-15T06:07:19;7.57;;;1.35;;
59306;SDS011;47983;53.016;-2.260;2023-05-15T06:10:00;12.20;;;1.50;;
59306;SDS011;47983;53.016;-2.260;2023-05-15T06:12:28;12.75;;;2.45;;
59306;SDS011;47983;53.016;-2.260;2023-05-15T06:14:56;8.93;;;2.40;;
59306;SDS011;47983;53.016;-2.260;2023-05-15T06:17:26;10.20;;;1.55;;
59306;SDS011;47983;53.016;-2.260;2023-05-15T06:19:54;7.65;;;1.17;;
59306;SDS011;47983;53.016;-2.260;2023-05-15T06:22:22;11.07;;;1.55;;
59306;SDS011;47983;53.016;-2.260;2023-05-15T06:24:51;14.65;;;2.28;;
59306;SDS011;47983;53.016;-2.260;2023-05-15T06:27:18;12.90;;;1.90;;
59306;SDS011;47983;53.016;-2.260;2023-05-15T06:29:48;8.65;;;1.00;;
59306;SDS011;47983;53.016;-2.260;2023-05-15T06:32:16;8.52;;;1.85;;
59306;SDS011;47983;53.016;-2.260;2023-05-15T06:34:45;9.75;;;1.27;;
59306;SDS011;47983;53.016;-2.260;2023-05-15T06:37:15;9.27;;;2.65;;
59306;SDS011;47983;53.016;-2.260;2023-05-15T06:39:43;10.35;;;2.45;;
59306;SDS011;47983;53.016;-2.260;2023-05-15T06:42:11;12.57;;;1.35;;
59306;SDS011;47983;53.016;-2.260;2023-05-15T06:44:40;10.65;;;1.35;;
59306;SDS011;47983;53.016;-2.260;2023-05-15T06:47:08;14.65;;;1.65;;
59306;SDS011;47983;53.016;-2.260;2023-05-15T06:49:36;6.68;;;1.30;;
59306;SDS011;47983;53.016;-2.260;2023-05-15T06:52:04;11.57;;;1.33;;
59306;SDS011;47983;53.016;-2.260;2023-05-15T06:54:32;6.05;;;1.27;;
59306;SDS011;47983;53.016;-2.260;2023-05-15T06:57:00;9.52;;;2.35;;
59306;SDS011;47983;53.016;-2.260;2023-05-15T06:59:28;7.53;;;1.95;;
59306;SDS011;47983;53.016;-2.260;2023-05-15T07:01:57;9.82;;;1.50;;
59306;SDS011;47983;53.016;-2.260;2023-05-15T07:04:25;3.85;;;0.90;;
59306;SDS011;47983;53.016;-2.260;2023-05-15T07:06:54;4.40;;;1.30;;
59306;SDS011;47983;53.016;-2.260;2023-05-15T07:09:22;7.10;;;0.88;;
59306;SDS011;47983;53.016;-2.260;2023-05-15T07:11:50;7.03;;;1.15;;
59306;SDS011;47983;53.016;-2.260;2023-05-15T07:14:21;7.28;;;1.25;;
59306;SDS011;47983;53.016;-2.260;2023-05-15T07:16:50;6.35;;;0.93;;
59306;SDS011;47983;53.016;-2.260;2023-05-15T07:19:18;14.55;;;1.85;;
59306;SDS011;47983;53.016;-2.260;2023-05-15T07:21:49;3.22;;;1.00;;
59306;SDS011;47983;53.016;-2.260;2023-05-15T07:24:17;6.90;;;1.23;;
59306;SDS011;47983;53.016;-2.260;2023-05-15T07:26:47;6.78;;;1.08;;
59306;SDS011;47983;53.016;-2.260;2023-05-15T07:29:23;13.95;;;1.23;;
59306;SDS011;47983;53.016;-2.260;2023-05-15T07:31:51;11.75;;;1.27;;
59306;SDS011;47983;53.016;-2.260;2023-05-15T07:34:20;14.10;;;3.22;;
59306;SDS011;47983;53.016;-2.260;2023-05-15T07:36:48;5.90;;;1.23;;
59306;SDS011;47983;53.016;-2.260;2023-05-15T07:39:18;11.00;;;1.38;;
59306;SDS011;47983;53.016;-2.260;2023-05-15T07:41:47;3.28;;;0.73;;
59306;SDS011;47983;53.016;-2.260;2023-05-15T07:44:15;2.60;;;0.50;;
59306;SDS011;47983;53.016;-2.260;2023-05-15T07:46:42;6.70;;;0.85;;
59306;SDS011;47983;53.016;-2.260;2023-05-15T07:49:11;5.37;;;1.33;;
59306;SDS011;47983;53.016;-2.260;2023-05-15T07:51:39;5.68;;;0.70;;
59306;SDS011;47983;53.016;-2.260;2023-05-15T07:54:08;4.30;;;0.83;;
59306;SDS011;47983;53.016;-2.260;2023-05-15T07:56:37;5.65;;;0.50;;
59306;SDS011;47983;53.016;-2.260;2023-05-15T07:59:05;9.85;;;0.93;;
59306;SDS011;47983;53.016;-2.260;2023-05-15T08:01:36;6.38;;;0.70;;
59306;SDS011;47983;53.016;-2.260;2023-05-15T08:04:06;9.70;;;0.88;;
59306;SDS011;47983;53.016;-2.260;2023-05-15T08:06:35;6.65;;;0.70;;
59306;SDS011;47983;53.016;-2.260;2023-05-15T08:09:04;5.10;;;0.80;;
59306;SDS011;47983;53.016;-2.260;2023-05-15T08:11:32;4.85;;;0.95;;
59306;SDS011;47983;53.016;-2.260;2023-05-15T08:14:00;2.88;;;0.43;;
59306;SDS011;47983;53.016;-2.260;2023-05-15T08:16:29;7.20;;;0.57;;
59306;SDS011;47983;53.016;-2.260;2023-05-15T08:18:57;2.35;;;0.65;;
59306;SDS011;47983;53.016;-2.260;2023-05-15T08:21:27;5.90;;;0.98;;
59306;SDS011;47983;53.016;-2.260;2023-05-15T08:23:56;4.88;;;0.60;;
59306;SDS011;47983;53.016;-2.260;2023-05-15T08:26:27;4.82;;;0.95;;
59306;SDS011;47983;53.016;-2.260;2023-05-15T08:28:55;8.95;;;0.98;;
59306;SDS011;47983;53.016;-2.260;2023-05-15T08:31:23;4.78;;;0.47;;
59306;SDS011;47983;53.016;-2.260;2023-05-15T08:33:51;0.32;;;0.30;;
59306;SDS011;47983;53.016;-2.260;2023-05-15T08:36:19;4.85;;;0.50;;
59306;SDS011;47983;53.016;-2.260;2023-05-15T08:38:50;5.40;;;0.40;;
59306;SDS011;47983;53.016;-2.260;2023-05-15T08:41:20;3.42;;;0.73;;
59306;SDS011;47983;53.016;-2.260;2023-05-15T08:44:07;3.90;;;0.35;;
59306;SDS011;47983;53.016;-2.260;2023-05-15T08:46:38;4.72;;;0.70;;
59306;SDS011;47983;53.016;-2.260;2023-05-15T08:51:53;2.30;;;0.30;;
59306;SDS011;47983;53.016;-2.260;2023-05-15T08:54:22;3.80;;;0.43;;
59306;SDS011;47983;53.016;-2.260;2023-05-15T08:56:50;5.43;;;0.60;;
59306;SDS011;47983;53.016;-2.260;2023-05-15T08:59:19;3.13;;;0.50;;
59306;SDS011;47983;53.016;-2.260;2023-05-15T09:01:50;4.07;;;0.63;;
59306;SDS011;47983;53.016;-2.260;2023-05-15T09:04:18;2.95;;;0.60;;
59306;SDS011;47983;53.016;-2.260;2023-05-15T09:06:46;6.07;;;0.73;;
59306;SDS011;47983;53.016;-2.260;2023-05-15T09:09:15;1.58;;;0.40;;
59306;SDS011;47983;53.016;-2.260;2023-05-15T09:11:45;3.10;;;0.30;;
59306;SDS011;47983;53.016;-2.260;2023-05-15T09:16:42;2.60;;;0.85;;
59306;SDS011;47983;53.016;-2.260;2023-05-15T09:19:12;3.78;;;0.40;;
59306;SDS011;47983;53.016;-2.260;2023-05-15T09:21:41;3.20;;;0.50;;
59306;SDS011;47983;53.016;-2.260;2023-05-15T09:27:02;4.20;;;0.50;;
59306;SDS011;47983;53.016;-2.260;2023-05-15T09:29:33;2.58;;;0.38;;
59306;SDS011;47983;53.016;-2.260;2023-05-15T09:32:06;2.83;;;0.40;;
59306;SDS011;47983;53.016;-2.260;2023-05-15T09:34:39;6.28;;;0.98;;
59306;SDS011;47983;53.016;-2.260;2023-05-15T09:37:09;4.28;;;0.32;;
59306;SDS011;47983;53.016;-2.260;2023-05-15T09:39:40;4.68;;;0.63;;
59306;SDS011;47983;53.016;-2.260;2023-05-15T09:42:10;3.28;;;0.55;;
59306;SDS011;47983;53.016;-2.260;2023-05-15T09:44:40;9.00;;;0.65;;
59306;SDS011;47983;53.016;-2.260;2023-05-15T09:47:09;7.68;;;0.90;;
59306;SDS011;47983;53.016;-2.260;2023-05-15T09:49:43;6.80;;;2.65;;
59306;SDS011;47983;53.016;-2.260;2023-05-15T09:52:13;5.88;;;1.60;;
59306;SDS011;47983;53.016;-2.260;2023-05-15T09:54:43;3.97;;;0.55;;
59306;SDS011;47983;53.016;-2.260;2023-05-15T09:57:19;6.50;;;0.60;;
59306;SDS011;47983;53.016;-2.260;2023-05-15T09:59:48;4.55;;;0.60;;
59306;SDS011;47983;53.016;-2.260;2023-05-15T10:02:26;5.28;;;0.70;;
59306;SDS011;47983;53.016;-2.260;2023-05-15T10:04:59;10.05;;;0.93;;
59306;SDS011;47983;53.016;-2.260;2023-05-15T10:07:30;5.57;;;0.70;;
59306;SDS011;47983;53.016;-2.260;2023-05-15T10:09:59;1.40;;;0.50;;
59306;SDS011;47983;53.016;-2.260;2023-05-15T10:12:30;3.65;;;0.80;;
59306;SDS011;47983;53.016;-2.260;2023-05-15T10:14:58;4.68;;;0.70;;
59306;SDS011;47983;53.016;-2.260;2023-05-15T10:17:27;9.33;;;1.33;;
59306;SDS011;47983;53.016;-2.260;2023-05-15T10:19:58;3.97;;;0.90;;
59306;SDS011;47983;53.016;-2.260;2023-05-15T10:22:28;2.67;;;0.52;;
59306;SDS011;47983;53.016;-2.260;2023-05-15T10:30:25;2.38;;;0.88;;
59306;SDS011;47983;53.016;-2.260;2023-05-15T10:32:55;3.00;;;0.57;;
59306;SDS011;47983;53.016;-2.260;2023-05-15T10:35:24;2.33;;;0.30;;
59306;SDS011;47983;53.016;-2.260;2023-05-15T10:37:53;2.08;;;0.32;;
59306;SDS011;47983;53.016;-2.260;2023-05-15T10:40:22;4.65;;;0.43;;
59306;SDS011;47983;53.016;-2.260;2023-05-15T10:42:50;0.93;;;0.40;;
59306;SDS011;47983;53.016;-2.260;2023-05-15T10:45:21;4.85;;;1.35;;
59306;SDS011;47983;53.016;-2.260;2023-05-15T10:47:49;9.60;;;0.75;;
59306;SDS011;47983;53.016;-2.260;2023-05-15T10:50:18;2.53;;;0.57;;
59306;SDS011;47983;53.016;-2.260;2023-05-15T10:52:49;7.88;;;0.50;;
59306;SDS011;47983;53.016;-2.260;2023-05-15T10:55:18;2.50;;;0.60;;
59306;SDS011;47983;53.016;-2.260;2023-05-15T10:57:46;1.73;;;0.38;;
59306;SDS011;47983;53.016;-2.260;2023-05-15T11:02:49;5.13;;;0.60;;
59306;SDS011;47983;53.016;-2.260;2023-05-15T11:05:20;3.70;;;0.75;;
59306;SDS011;47983;53.016;-2.260;2023-05-15T11:10:52;6.80;;;0.60;;
59306;SDS011;47983;53.016;-2.260;2023-05-15T11:13:20;8.95;;;0.85;;
59306;SDS011;47983;53.016;-2.260;2023-05-15T11:15:51;9.57;;;1.33;;
59306;SDS011;47983;53.016;-2.260;2023-05-15T11:18:20;7.05;;;1.02;;
59306;SDS011;47983;53.016;-2.260;2023-05-15T11:23:21;4.50;;;0.77;;
59306;SDS011;47983;53.016;-2.260;2023-05-15T11:25:54;2.38;;;0.60;;
59306;SDS011;47983;53.016;-2.260;2023-05-15T11:28:24;7.95;;;0.63;;
59306;SDS011;47983;53.016;-2.260;2023-05-15T11:30:58;5.45;;;0.50;;
59306;SDS011;47983;53.016;-2.260;2023-05-15T11:33:28;1.65;;;0.40;;
59306;SDS011;47983;53.016;-2.260;2023-05-15T11:36:04;11.18;;;0.52;;
59306;SDS011;47983;53.016;-2.260;2023-05-15T11:38:37;2.92;;;0.70;;
59306;SDS011;47983;53.016;-2.260;2023-05-15T11:41:19;5.35;;;0.60;;
59306;SDS011;47983;53.016;-2.260;2023-05-15T11:43:48;4.35;;;0.63;;
59306;SDS011;47983;53.016;-2.260;2023-05-15T11:46:16;4.30;;;0.60;;
59306;SDS011;47983;53.016;-2.260;2023-05-15T11:48:45;4.65;;;0.75;;
59306;SDS011;47983;53.016;-2.260;2023-05-15T11:51:22;2.65;;;0.45;;
59306;SDS011;47983;53.016;-2.260;2023-05-15T11:53:52;6.32;;;0.50;;
59306;SDS011;47983;53.016;-2.260;2023-05-15T11:56:24;5.45;;;0.52;;
59306;SDS011;47983;53.016;-2.260;2023-05-15T11:58:55;5.68;;;0.60;;
59306;SDS011;47983;53.016;-2.260;2023-05-15T12:01:24;4.07;;;0.50;;
59306;SDS011;47983;53.016;-2.260;2023-05-15T12:03:52;4.80;;;0.45;;
59306;SDS011;47983;53.016;-2.260;2023-05-15T12:06:21;5.43;;;0.70;;
59306;SDS011;47983;53.016;-2.260;2023-05-15T12:08:51;4.25;;;0.82;;
59306;SDS011;47983;53.016;-2.260;2023-05-15T12:11:23;5.65;;;0.68;;
59306;SDS011;47983;53.016;-2.260;2023-05-15T12:13:51;6.07;;;0.70;;
59306;SDS011;47983;53.016;-2.260;2023-05-15T12:16:24;4.15;;;1.10;;
59306;SDS011;47983;53.016;-2.260;2023-05-15T12:18:57;3.92;;;0.60;;
59306;SDS011;47983;53.016;-2.260;2023-05-15T12:21:26;3.00;;;1.08;;
59306;SDS011;47983;53.016;-2.260;2023-05-15T12:23:54;1.08;;;0.40;;
59306;SDS011;47983;53.016;-2.260;2023-05-15T12:26:24;1.88;;;0.40;;
59306;SDS011;47983;53.016;-2.260;2023-05-15T12:28:54;9.50;;;1.00;;
59306;SDS011;47983;53.016;-2.260;2023-05-15T12:31:23;2.90;;;0.75;;
59306;SDS011;47983;53.016;-2.260;2023-05-15T12:33:51;4.78;;;0.47;;
59306;SDS011;47983;53.016;-2.260;2023-05-15T12:36:19;6.82;;;0.60;;
59306;SDS011;47983;53.016;-2.260;2023-05-15T12:38:48;0.60;;;0.35;;
59306;SDS011;47983;53.016;-2.260;2023-05-15T12:41:16;3.50;;;0.57;;
59306;SDS011;47983;53.016;-2.260;2023-05-15T12:43:46;5.28;;;0.55;;
59306;SDS011;47983;53.016;-2.260;2023-05-15T12:46:14;5.90;;;0.60;;
59306;SDS011;47983;53.016;-2.260;2023-05-15T12:48:48;4.20;;;0.60;;
59306;SDS011;47983;53.016;-2.260;2023-05-15T12:51:18;8.45;;;0.93;;
59306;SDS011;47983;53.016;-2.260;2023-05-15T12:53:51;16.95;;;1.30;;
59306;SDS011;47983;53.016;-2.260;2023-05-15T12:56:19;6.82;;;0.70;;
59306;SDS011;47983;53.016;-2.260;2023-05-15T12:58:50;4.13;;;0.82;;
59306;SDS011;47983;53.016;-2.260;2023-05-15T13:03:48;6.15;;;0.88;;
59306;SDS011;47983;53.016;-2.260;2023-05-15T13:06:17;4.68;;;0.82;;
59306;SDS011;47983;53.016;-2.260;2023-05-15T13:08:46;3.95;;;0.98;;
59306;SDS011;47983;53.016;-2.260;2023-05-15T13:11:15;4.57;;;0.80;;
59306;SDS011;47983;53.016;-2.260;2023-05-15T13:13:45;6.05;;;1.17;;
59306;SDS011;47983;53.016;-2.260;2023-05-15T13:16:18;11.60;;;1.00;;
59306;SDS011;47983;53.016;-2.260;2023-05-15T13:18:56;4.10;;;0.90;;
59306;SDS011;47983;53.016;-2.260;2023-05-15T13:21:24;7.05;;;0.60;;
59306;SDS011;47983;53.016;-2.260;2023-05-15T13:23:52;7.20;;;1.15;;
59306;SDS011;47983;53.016;-2.260;2023-05-15T13:26:20;2.58;;;0.60;;
59306;SDS011;47983;53.016;-2.260;2023-05-15T13:28:49;5.35;;;0.68;;
59306;SDS011;47983;53.016;-2.260;2023-05-15T13:31:20;8.13;;;0.70;;
59306;SDS011;47983;53.016;-2.260;2023-05-15T13:33:48;6.43;;;1.02;;
59306;SDS011;47983;53.016;-2.260;2023-05-15T13:36:16;5.78;;;0.68;;
59306;SDS011;47983;53.016;-2.260;2023-05-15T13:38:44;9.07;;;1.38;;
59306;SDS011;47983;53.016;-2.260;2023-05-15T13:41:12;6.78;;;0.85;;
59306;SDS011;47983;53.016;-2.260;2023-05-15T13:43:40;6.75;;;0.82;;
59306;SDS011;47983;53.016;-2.260;2023-05-15T13:46:08;2.33;;;0.73;;
59306;SDS011;47983;53.016;-2.260;2023-05-15T13:48:37;4.47;;;0.70;;
59306;SDS011;47983;53.016;-2.260;2023-05-15T13:51:05;2.63;;;0.85;;
59306;SDS011;47983;53.016;-2.260;2023-05-15T13:53:33;4.53;;;0.95;;
59306;SDS011;47983;53.016;-2.260;2023-05-15T13:56:01;7.30;;;0.95;;
59306;SDS011;47983;53.016;-2.260;2023-05-15T13:58:29;7.18;;;1.42;;
59306;SDS011;47983;53.016;-2.260;2023-05-15T14:00:57;9.23;;;1.30;;
59306;SDS011;47983;53.016;-2.260;2023-05-15T14:03:25;6.78;;;0.90;;
59306;SDS011;47983;53.016;-2.260;2023-05-15T14:05:53;11.07;;;1.02;;
59306;SDS011;47983;53.016;-2.260;2023-05-15T14:08:20;5.00;;;0.80;;
59306;SDS011;47983;53.016;-2.260;2023-05-15T14:10:48;5.18;;;1.65;;
59306;SDS011;47983;53.016;-2.260;2023-05-15T14:13:17;8.82;;;1.10;;
59306;SDS011;47983;53.016;-2.260;2023-05-15T14:15:44;3.08;;;0.73;;
59306;SDS011;47983;53.016;-2.260;2023-05-15T14:18:13;6.45;;;0.82;;
59306;SDS011;47983;53.016;-2.260;2023-05-15T14:20:42;6.65;;;0.65;;
59306;SDS011;47983;53.016;-2.260;2023-05-15T14:23:10;6.07;;;0.80;;
59306;SDS011;47983;53.016;-2.260;2023-05-15T14:25:39;5.43;;;0.80;;
59306;SDS011;47983;53.016;-2.260;2023-05-15T14:28:07;2.92;;;0.82;;
59306;SDS011;47983;53.016;-2.260;2023-05-15T14:30:35;4.18;;;1.20;;
59306;SDS011;47983;53.016;-2.260;2023-05-15T14:33:03;5.75;;;0.80;;
59306;SDS011;47983;53.016;-2.260;2023-05-15T14:35:31;7.78;;;1.00;;
59306;SDS011;47983;53.016;-2.260;2023-05-15T14:37:59;5.22;;;1.10;;
59306;SDS011;47983;53.016;-2.260;2023-05-15T14:40:30;6.53;;;0.80;;
59306;SDS011;47983;53.016;-2.260;2023-05-15T14:42:58;6.65;;;0.98;;
59306;SDS011;47983;53.016;-2.260;2023-05-15T14:45:26;4.53;;;1.20;;
59306;SDS011;47983;53.016;-2.260;2023-05-15T14:47:54;4.40;;;0.93;;
59306;SDS011;47983;53.016;-2.260;2023-05-15T14:50:22;6.03;;;1.00;;
59306;SDS011;47983;53.016;-2.260;2023-05-15T14:52:51;6.22;;;0.70;;
59306;SDS011;47983;53.016;-2.260;2023-05-15T14:55:19;8.77;;;1.08;;
59306;SDS011;47983;53.016;-2.260;2023-05-15T14:57:48;6.20;;;0.80;;
59306;SDS011;47983;53.016;-2.260;2023-05-15T15:00:16;8.25;;;1.35;;
59306;SDS011;47983;53.016;-2.260;2023-05-15T15:02:44;4.45;;;0.80;;
59306;SDS011;47983;53.016;-2.260;2023-05-15T15:05:12;7.18;;;0.93;;
59306;SDS011;47983;53.016;-2.260;2023-05-15T15:10:37;8.77;;;1.10;;
59306;SDS011;47983;53.016;-2.260;2023-05-15T15:13:06;7.05;;;1.00;;
59306;SDS011;47983;53.016;-2.260;2023-05-15T15:15:36;5.20;;;1.10;;
59306;SDS011;47983;53.016;-2.260;2023-05-15T15:18:04;7.55;;;1.15;;
59306;SDS011;47983;53.016;-2.260;2023-05-15T15:20:33;6.95;;;0.70;;
59306;SDS011;47983;53.016;-2.260;2023-05-15T15:23:01;11.10;;;1.10;;
59306;SDS011;47983;53.016;-2.260;2023-05-15T15:25:29;4.32;;;0.98;;
59306;SDS011;47983;53.016;-2.260;2023-05-15T15:27:59;6.60;;;1.10;;
59306;SDS011;47983;53.016;-2.260;2023-05-15T15:30:27;9.32;;;1.30;;